sensor_id;sensor_type;location;lat;lon;timestamp;temperature;humidity
698;DHT22;331;48.414;9.938;2023-05-13T00:00:00;11.80;99.90
698;DHT22;331;48.414;9.938;2023-05-13T00:02:26;11.80;99.90
698;DHT22;331;48.414;9.938;2023-05-13T00:04:53;11.80;99.90
698;DHT22;331;48.414;9.938;2023-05-13T00:07:20;11.80;99.90
698;DHT22;331;48.414;9.938;2023-05-13T00:09:48;11.80;99.90
698;DHT22;331;48.414;9.938;2023-05-13T00:12:15;11.80;99.90
698;DHT22;331;48.414;9.938;2023-05-13T00:14:43;11.80;99.90
698;DHT22;331;48.414;9.938;2023-05-13T00:17:10;11.80;99.90
698;DHT22;331;48.414;9.938;2023-05-13T00:19:37;11.80;99.90
698;DHT22;331;48.414;9.938;2023-05-13T00:22:04;11.70;99.90
698;DHT22;331;48.414;9.938;2023-05-13T00:24:31;11.70;99.90
698;DHT22;331;48.414;9.938;2023-05-13T00:26:59;11.70;99.90
698;DHT22;331;48.414;9.938;2023-05-13T00:29:26;11.70;99.90
698;DHT22;331;48.414;9.938;2023-05-13T00:31:52;11.70;99.90
698;DHT22;331;48.414;9.938;2023-05-13T00:34:19;11.70;99.90
698;DHT22;331;48.414;9.938;2023-05-13T00:36:46;11.70;99.90
698;DHT22;331;48.414;9.938;2023-05-13T00:39:13;11.70;99.90
698;DHT22;331;48.414;9.938;2023-05-13T00:41:40;11.70;99.90
698;DHT22;331;48.414;9.938;2023-05-13T00:44:08;11.70;99.90
698;DHT22;331;48.414;9.938;2023-05-13T00:46:35;11.70;99.90
698;DHT22;331;48.414;9.938;2023-05-13T00:49:02;11.70;99.90
698;DHT22;331;48.414;9.938;2023-05-13T00:51:30;11.60;99.90
698;DHT22;331;48.414;9.938;2023-05-13T00:53:57;11.60;99.90
698;DHT22;331;48.414;9.938;2023-05-13T00:56:24;11.60;99.90
698;DHT22;331;48.414;9.938;2023-05-13T00:58:51;11.60;99.90
698;DHT22;331;48.414;9.938;2023-05-13T01:01:22;11.60;99.90
698;DHT22;331;48.414;9.938;2023-05-13T01:03:52;11.60;99.90
698;DHT22;331;48.414;9.938;2023-05-13T01:06:22;11.60;99.90
698;DHT22;331;48.414;9.938;2023-05-13T01:08:54;11.60;99.90
698;DHT22;331;48.414;9.938;2023-05-13T01:11:23;11.60;99.90
698;DHT22;331;48.414;9.938;2023-05-13T01:13:56;11.60;99.90
698;DHT22;331;48.414;9.938;2023-05-13T01:16:30;11.60;99.90
698;DHT22;331;48.414;9.938;2023-05-13T01:18:58;11.60;99.90
698;DHT22;331;48.414;9.938;2023-05-13T01:21:27;11.50;99.90
698;DHT22;331;48.414;9.938;2023-05-13T01:23:54;11.50;99.90
698;DHT22;331;48.414;9.938;2023-05-13T01:26:21;11.50;99.90
698;DHT22;331;48.414;9.938;2023-05-13T01:28:49;11.50;99.90
698;DHT22;331;48.414;9.938;2023-05-13T01:31:16;11.50;99.90
698;DHT22;331;48.414;9.938;2023-05-13T01:33:44;11.50;99.90
698;DHT22;331;48.414;9.938;2023-05-13T01:36:13;11.50;99.90
698;DHT22;331;48.414;9.938;2023-05-13T01:38:41;11.50;99.90
698;DHT22;331;48.414;9.938;2023-05-13T01:41:09;11.50;99.90
698;DHT22;331;48.414;9.938;2023-05-13T01:43:35;11.50;99.90
698;DHT22;331;48.414;9.938;2023-05-13T01:46:03;11.50;99.90
698;DHT22;331;48.414;9.938;2023-05-13T01:48:36;11.50;99.90
698;DHT22;331;48.414;9.938;2023-05-13T01:51:04;11.50;99.90
698;DHT22;331;48.414;9.938;2023-05-13T01:53:31;11.50;99.90
698;DHT22;331;48.414;9.938;2023-05-13T01:55:59;11.50;99.90
698;DHT22;331;48.414;9.938;2023-05-13T01:58:26;11.40;99.90
698;DHT22;331;48.414;9.938;2023-05-13T02:00:53;11.40;99.90
698;DHT22;331;48.414;9.938;2023-05-13T02:03:20;11.40;99.90
698;DHT22;331;48.414;9.938;2023-05-13T02:05:46;11.40;99.90
698;DHT22;331;48.414;9.938;2023-05-13T02:08:13;11.40;99.90
698;DHT22;331;48.414;9.938;2023-05-13T02:10:40;11.40;99.90
698;DHT22;331;48.414;9.938;2023-05-13T02:13:09;11.40;99.90
698;DHT22;331;48.414;9.938;2023-05-13T02:15:37;11.40;99.90
698;DHT22;331;48.414;9.938;2023-05-13T02:18:04;11.40;99.90
698;DHT22;331;48.414;9.938;2023-05-13T02:20:31;11.40;99.90
698;DHT22;331;48.414;9.938;2023-05-13T02:22:58;11.40;99.90
698;DHT22;331;48.414;9.938;2023-05-13T02:25:26;11.40;99.90
698;DHT22;331;48.414;9.938;2023-05-13T02:27:53;11.30;99.90
698;DHT22;331;48.414;9.938;2023-05-13T02:30:21;11.30;99.90
698;DHT22;331;48.414;9.938;2023-05-13T02:32:51;11.30;99.90
698;DHT22;331;48.414;9.938;2023-05-13T02:35:18;11.30;99.90
698;DHT22;331;48.414;9.938;2023-05-13T02:37:49;11.30;99.90
698;DHT22;331;48.414;9.938;2023-05-13T02:40:16;11.30;99.90
698;DHT22;331;48.414;9.938;2023-05-13T02:42:44;11.30;99.90
698;DHT22;331;48.414;9.938;2023-05-13T02:45:13;11.30;99.90
698;DHT22;331;48.414;9.938;2023-05-13T02:47:45;11.30;99.90
698;DHT22;331;48.414;9.938;2023-05-13T02:50:12;11.30;99.90
698;DHT22;331;48.414;9.938;2023-05-13T02:52:40;11.30;99.90
698;DHT22;331;48.414;9.938;2023-05-13T02:55:07;11.30;99.90
698;DHT22;331;48.414;9.938;2023-05-13T02:57:35;11.30;99.90
698;DHT22;331;48.414;9.938;2023-05-13T03:00:03;11.30;99.90
698;DHT22;331;48.414;9.938;2023-05-13T03:02:30;11.20;99.90
698;DHT22;331;48.414;9.938;2023-05-13T03:04:59;11.30;99.90
698;DHT22;331;48.414;9.938;2023-05-13T03:07:25;11.20;99.90
698;DHT22;331;48.414;9.938;2023-05-13T03:09:52;11.20;99.90
698;DHT22;331;48.414;9.938;2023-05-13T03:12:19;11.20;99.90
698;DHT22;331;48.414;9.938;2023-05-13T03:14:46;11.20;99.90
698;DHT22;331;48.414;9.938;2023-05-13T03:17:13;11.20;99.90
698;DHT22;331;48.414;9.938;2023-05-13T03:19:40;11.20;99.90
698;DHT22;331;48.414;9.938;2023-05-13T03:22:10;11.20;99.90
698;DHT22;331;48.414;9.938;2023-05-13T03:24:37;11.20;99.90
698;DHT22;331;48.414;9.938;2023-05-13T03:27:04;11.20;99.90
698;DHT22;331;48.414;9.938;2023-05-13T03:29:31;11.20;99.90
698;DHT22;331;48.414;9.938;2023-05-13T03:31:58;11.20;99.90
698;DHT22;331;48.414;9.938;2023-05-13T03:34:25;11.20;99.90
698;DHT22;331;48.414;9.938;2023-05-13T03:36:52;11.20;99.90
698;DHT22;331;48.414;9.938;2023-05-13T03:39:20;11.20;99.90
698;DHT22;331;48.414;9.938;2023-05-13T03:41:47;11.10;99.90
698;DHT22;331;48.414;9.938;2023-05-13T03:44:14;11.10;99.90
698;DHT22;331;48.414;9.938;2023-05-13T03:46:41;11.10;99.90
698;DHT22;331;48.414;9.938;2023-05-13T03:49:08;11.10;99.90
698;DHT22;331;48.414;9.938;2023-05-13T03:51:35;11.10;99.90
698;DHT22;331;48.414;9.938;2023-05-13T03:54:02;11.10;99.90
698;DHT22;331;48.414;9.938;2023-05-13T03:56:31;11.10;99.90
698;DHT22;331;48.414;9.938;2023-05-13T03:58:58;11.10;99.90
698;DHT22;331;48.414;9.938;2023-05-13T04:01:25;11.10;99.90
698;DHT22;331;48.414;9.938;2023-05-13T04:03:52;11.10;99.90
698;DHT22;331;48.414;9.938;2023-05-13T04:06:19;11.10;99.90
698;DHT22;331;48.414;9.938;2023-05-13T04:08:46;11.10;99.90
698;DHT22;331;48.414;9.938;2023-05-13T04:11:14;11.00;99.90
698;DHT22;331;48.414;9.938;2023-05-13T04:13:43;11.10;99.90
698;DHT22;331;48.414;9.938;2023-05-13T04:16:10;11.10;99.90
698;DHT22;331;48.414;9.938;2023-05-13T04:18:37;11.10;99.90
698;DHT22;331;48.414;9.938;2023-05-13T04:21:07;11.10;99.90
698;DHT22;331;48.414;9.938;2023-05-13T04:23:34;11.10;99.90
698;DHT22;331;48.414;9.938;2023-05-13T04:26:01;11.00;99.90
698;DHT22;331;48.414;9.938;2023-05-13T04:28:28;11.00;99.90
698;DHT22;331;48.414;9.938;2023-05-13T04:30:58;11.00;99.90
698;DHT22;331;48.414;9.938;2023-05-13T04:33:25;11.00;99.90
698;DHT22;331;48.414;9.938;2023-05-13T04:35:52;11.00;99.90
698;DHT22;331;48.414;9.938;2023-05-13T04:38:19;11.00;99.90
698;DHT22;331;48.414;9.938;2023-05-13T04:40:46;11.00;99.90
698;DHT22;331;48.414;9.938;2023-05-13T04:43:16;11.00;99.90
698;DHT22;331;48.414;9.938;2023-05-13T04:45:50;11.00;99.90
698;DHT22;331;48.414;9.938;2023-05-13T04:48:18;11.00;99.90
698;DHT22;331;48.414;9.938;2023-05-13T04:50:45;11.00;99.90
698;DHT22;331;48.414;9.938;2023-05-13T04:53:13;11.00;99.90
698;DHT22;331;48.414;9.938;2023-05-13T04:55:40;11.00;99.90
698;DHT22;331;48.414;9.938;2023-05-13T04:58:07;11.00;99.90
698;DHT22;331;48.414;9.938;2023-05-13T05:00:35;11.00;99.90
698;DHT22;331;48.414;9.938;2023-05-13T05:03:01;10.90;99.90
698;DHT22;331;48.414;9.938;2023-05-13T05:05:30;11.00;99.90
698;DHT22;331;48.414;9.938;2023-05-13T05:07:57;10.90;99.90
698;DHT22;331;48.414;9.938;2023-05-13T05:10:24;10.90;99.90
698;DHT22;331;48.414;9.938;2023-05-13T05:12:56;10.90;99.90
698;DHT22;331;48.414;9.938;2023-05-13T05:15:23;10.90;99.90
698;DHT22;331;48.414;9.938;2023-05-13T05:17:53;10.90;99.90
698;DHT22;331;48.414;9.938;2023-05-13T05:20:21;10.90;99.90
698;DHT22;331;48.414;9.938;2023-05-13T05:22:51;10.90;99.90
698;DHT22;331;48.414;9.938;2023-05-13T05:25:21;10.90;99.90
698;DHT22;331;48.414;9.938;2023-05-13T05:27:49;10.90;99.90
698;DHT22;331;48.414;9.938;2023-05-13T05:30:16;10.90;99.90
698;DHT22;331;48.414;9.938;2023-05-13T05:32:47;10.90;99.90
698;DHT22;331;48.414;9.938;2023-05-13T05:35:14;10.90;99.90
698;DHT22;331;48.414;9.938;2023-05-13T05:37:44;10.90;99.90
698;DHT22;331;48.414;9.938;2023-05-13T05:40:12;10.90;99.90
698;DHT22;331;48.414;9.938;2023-05-13T05:42:39;10.90;99.90
698;DHT22;331;48.414;9.938;2023-05-13T05:45:07;10.90;99.90
698;DHT22;331;48.414;9.938;2023-05-13T05:47:35;10.90;99.90
698;DHT22;331;48.414;9.938;2023-05-13T05:50:02;10.90;99.90
698;DHT22;331;48.414;9.938;2023-05-13T05:52:29;10.90;99.90
698;DHT22;331;48.414;9.938;2023-05-13T05:54:57;10.90;99.90
698;DHT22;331;48.414;9.938;2023-05-13T05:57:25;10.80;99.90
698;DHT22;331;48.414;9.938;2023-05-13T05:59:52;10.80;99.90
698;DHT22;331;48.414;9.938;2023-05-13T06:02:19;10.80;99.90
698;DHT22;331;48.414;9.938;2023-05-13T06:04:46;10.80;99.90
698;DHT22;331;48.414;9.938;2023-05-13T06:07:14;10.80;99.90
698;DHT22;331;48.414;9.938;2023-05-13T06:09:41;10.80;99.90
698;DHT22;331;48.414;9.938;2023-05-13T06:12:08;10.80;99.90
698;DHT22;331;48.414;9.938;2023-05-13T06:14:36;10.80;99.90
698;DHT22;331;48.414;9.938;2023-05-13T06:17:03;10.80;99.90
698;DHT22;331;48.414;9.938;2023-05-13T06:19:30;10.80;99.90
698;DHT22;331;48.414;9.938;2023-05-13T06:21:57;10.80;99.90
698;DHT22;331;48.414;9.938;2023-05-13T06:24:24;10.80;99.90
698;DHT22;331;48.414;9.938;2023-05-13T06:26:50;10.80;99.90
698;DHT22;331;48.414;9.938;2023-05-13T06:29:19;10.80;99.90
698;DHT22;331;48.414;9.938;2023-05-13T06:31:48;10.80;99.90
698;DHT22;331;48.414;9.938;2023-05-13T06:34:15;10.80;99.90
698;DHT22;331;48.414;9.938;2023-05-13T06:36:44;10.80;99.90
698;DHT22;331;48.414;9.938;2023-05-13T06:39:11;10.80;99.90
698;DHT22;331;48.414;9.938;2023-05-13T06:41:38;10.80;99.90
698;DHT22;331;48.414;9.938;2023-05-13T06:44:10;10.80;99.90
698;DHT22;331;48.414;9.938;2023-05-13T06:46:39;10.80;99.90
698;DHT22;331;48.414;9.938;2023-05-13T06:49:07;10.80;99.90
698;DHT22;331;48.414;9.938;2023-05-13T06:51:34;10.80;99.90
698;DHT22;331;48.414;9.938;2023-05-13T06:54:01;10.80;99.90
698;DHT22;331;48.414;9.938;2023-05-13T06:56:28;10.80;99.90
698;DHT22;331;48.414;9.938;2023-05-13T06:58:55;10.80;99.90
698;DHT22;331;48.414;9.938;2023-05-13T07:01:21;10.80;99.90
698;DHT22;331;48.414;9.938;2023-05-13T07:03:48;10.80;99.90
698;DHT22;331;48.414;9.938;2023-05-13T07:06:16;10.80;99.90
698;DHT22;331;48.414;9.938;2023-05-13T07:08:43;10.80;99.90
698;DHT22;331;48.414;9.938;2023-05-13T07:11:10;10.80;99.90
698;DHT22;331;48.414;9.938;2023-05-13T07:13:37;10.70;99.90
698;DHT22;331;48.414;9.938;2023-05-13T07:16:04;10.80;99.90
698;DHT22;331;48.414;9.938;2023-05-13T07:18:34;10.80;99.90
698;DHT22;331;48.414;9.938;2023-05-13T07:21:01;10.80;99.90
698;DHT22;331;48.414;9.938;2023-05-13T07:23:29;10.80;99.90
698;DHT22;331;48.414;9.938;2023-05-13T07:25:57;10.70;99.90
698;DHT22;331;48.414;9.938;2023-05-13T07:28:23;10.80;99.90
698;DHT22;331;48.414;9.938;2023-05-13T07:30:50;10.80;99.90
698;DHT22;331;48.414;9.938;2023-05-13T07:33:17;10.80;99.90
698;DHT22;331;48.414;9.938;2023-05-13T07:35:44;10.70;99.90
698;DHT22;331;48.414;9.938;2023-05-13T07:38:11;10.80;99.90
698;DHT22;331;48.414;9.938;2023-05-13T07:40:39;10.80;99.90
698;DHT22;331;48.414;9.938;2023-05-13T07:43:06;10.70;99.90
698;DHT22;331;48.414;9.938;2023-05-13T07:45:34;10.70;99.90
698;DHT22;331;48.414;9.938;2023-05-13T07:48:01;10.70;99.90
698;DHT22;331;48.414;9.938;2023-05-13T07:50:28;10.70;99.90
698;DHT22;331;48.414;9.938;2023-05-13T07:52:54;10.80;99.90
698;DHT22;331;48.414;9.938;2023-05-13T07:55:21;10.80;99.90
698;DHT22;331;48.414;9.938;2023-05-13T07:57:50;10.80;99.90
698;DHT22;331;48.414;9.938;2023-05-13T08:00:17;10.80;99.90
698;DHT22;331;48.414;9.938;2023-05-13T08:02:44;10.70;99.90
698;DHT22;331;48.414;9.938;2023-05-13T08:05:11;10.80;99.90
698;DHT22;331;48.414;9.938;2023-05-13T08:07:37;10.80;99.90
698;DHT22;331;48.414;9.938;2023-05-13T08:10:04;10.70;99.90
698;DHT22;331;48.414;9.938;2023-05-13T08:12:32;10.80;99.90
698;DHT22;331;48.414;9.938;2023-05-13T08:15:00;10.70;99.90
698;DHT22;331;48.414;9.938;2023-05-13T08:17:28;10.80;99.90
698;DHT22;331;48.414;9.938;2023-05-13T08:19:55;10.80;99.90
698;DHT22;331;48.414;9.938;2023-05-13T08:22:21;10.80;99.90
698;DHT22;331;48.414;9.938;2023-05-13T08:24:48;10.80;99.90
698;DHT22;331;48.414;9.938;2023-05-13T08:27:15;10.70;99.90
698;DHT22;331;48.414;9.938;2023-05-13T08:29:42;10.80;99.90
698;DHT22;331;48.414;9.938;2023-05-13T08:32:10;10.80;99.90
698;DHT22;331;48.414;9.938;2023-05-13T08:34:37;10.70;99.90
698;DHT22;331;48.414;9.938;2023-05-13T08:37:04;10.80;99.90
698;DHT22;331;48.414;9.938;2023-05-13T08:39:31;10.80;99.90
698;DHT22;331;48.414;9.938;2023-05-13T08:41:58;10.80;99.90
698;DHT22;331;48.414;9.938;2023-05-13T08:44:27;10.80;99.90
698;DHT22;331;48.414;9.938;2023-05-13T08:46:58;10.80;99.90
698;DHT22;331;48.414;9.938;2023-05-13T08:49:27;10.80;99.90
698;DHT22;331;48.414;9.938;2023-05-13T08:51:54;10.80;99.90
698;DHT22;331;48.414;9.938;2023-05-13T08:54:20;10.80;99.90
698;DHT22;331;48.414;9.938;2023-05-13T08:56:48;10.80;99.90
698;DHT22;331;48.414;9.938;2023-05-13T08:59:15;10.80;99.90
698;DHT22;331;48.414;9.938;2023-05-13T09:01:42;10.80;99.90
698;DHT22;331;48.414;9.938;2023-05-13T09:04:09;10.80;99.90
698;DHT22;331;48.414;9.938;2023-05-13T09:06:38;10.80;99.90
698;DHT22;331;48.414;9.938;2023-05-13T09:09:05;10.80;99.90
698;DHT22;331;48.414;9.938;2023-05-13T09:11:31;10.80;99.90
698;DHT22;331;48.414;9.938;2023-05-13T09:14:00;10.80;99.90
698;DHT22;331;48.414;9.938;2023-05-13T09:16:27;10.80;99.90
698;DHT22;331;48.414;9.938;2023-05-13T09:18:55;10.80;99.90
698;DHT22;331;48.414;9.938;2023-05-13T09:21:22;10.80;99.90
698;DHT22;331;48.414;9.938;2023-05-13T09:23:51;10.80;99.90
698;DHT22;331;48.414;9.938;2023-05-13T09:26:27;10.80;99.90
698;DHT22;331;48.414;9.938;2023-05-13T09:31:35;10.80;99.90
698;DHT22;331;48.414;9.938;2023-05-13T09:34:03;10.80;99.90
698;DHT22;331;48.414;9.938;2023-05-13T09:36:30;10.80;99.90
698;DHT22;331;48.414;9.938;2023-05-13T09:38:59;10.80;99.90
698;DHT22;331;48.414;9.938;2023-05-13T09:41:26;10.80;99.90
698;DHT22;331;48.414;9.938;2023-05-13T09:43:53;10.80;99.90
698;DHT22;331;48.414;9.938;2023-05-13T09:46:20;10.80;99.90
698;DHT22;331;48.414;9.938;2023-05-13T09:48:46;10.80;99.90
698;DHT22;331;48.414;9.938;2023-05-13T09:51:18;10.80;99.90
698;DHT22;331;48.414;9.938;2023-05-13T09:53:50;10.80;99.90
698;DHT22;331;48.414;9.938;2023-05-13T09:56:20;10.80;99.90
698;DHT22;331;48.414;9.938;2023-05-13T09:58:51;10.80;99.90
698;DHT22;331;48.414;9.938;2023-05-13T10:01:18;10.80;99.90
698;DHT22;331;48.414;9.938;2023-05-13T10:03:45;10.80;99.90
698;DHT22;331;48.414;9.938;2023-05-13T10:06:12;10.80;99.90
698;DHT22;331;48.414;9.938;2023-05-13T10:08:40;10.80;99.90
698;DHT22;331;48.414;9.938;2023-05-13T10:11:07;10.80;99.90
698;DHT22;331;48.414;9.938;2023-05-13T10:13:36;10.80;99.90
698;DHT22;331;48.414;9.938;2023-05-13T10:16:04;10.90;99.90
698;DHT22;331;48.414;9.938;2023-05-13T10:18:30;10.80;99.90
698;DHT22;331;48.414;9.938;2023-05-13T10:20:57;10.80;99.90
698;DHT22;331;48.414;9.938;2023-05-13T10:23:24;10.80;99.90
698;DHT22;331;48.414;9.938;2023-05-13T10:25:52;10.80;99.90
698;DHT22;331;48.414;9.938;2023-05-13T10:28:19;10.80;99.90
698;DHT22;331;48.414;9.938;2023-05-13T10:30:47;10.80;99.90
698;DHT22;331;48.414;9.938;2023-05-13T10:33:14;10.80;99.90
698;DHT22;331;48.414;9.938;2023-05-13T10:35:42;10.90;99.90
698;DHT22;331;48.414;9.938;2023-05-13T10:38:14;10.90;99.90
698;DHT22;331;48.414;9.938;2023-05-13T10:40:55;10.90;99.90
698;DHT22;331;48.414;9.938;2023-05-13T10:43:26;10.90;99.90
698;DHT22;331;48.414;9.938;2023-05-13T10:45:56;10.90;99.90
698;DHT22;331;48.414;9.938;2023-05-13T10:48:23;10.90;99.90
698;DHT22;331;48.414;9.938;2023-05-13T10:50:51;10.90;99.90
698;DHT22;331;48.414;9.938;2023-05-13T10:53:19;10.90;99.90
698;DHT22;331;48.414;9.938;2023-05-13T10:55:50;10.90;99.90
698;DHT22;331;48.414;9.938;2023-05-13T10:58:17;10.90;99.90
698;DHT22;331;48.414;9.938;2023-05-13T11:00:47;10.90;99.90
698;DHT22;331;48.414;9.938;2023-05-13T11:03:25;10.90;99.90
698;DHT22;331;48.414;9.938;2023-05-13T11:06:00;10.90;99.90
698;DHT22;331;48.414;9.938;2023-05-13T11:08:35;10.80;99.90
698;DHT22;331;48.414;9.938;2023-05-13T11:11:15;10.90;99.90
698;DHT22;331;48.414;9.938;2023-05-13T11:13:42;10.90;99.90
698;DHT22;331;48.414;9.938;2023-05-13T11:16:09;10.90;99.90
698;DHT22;331;48.414;9.938;2023-05-13T11:18:39;10.90;99.90
698;DHT22;331;48.414;9.938;2023-05-13T11:21:06;10.90;99.90
698;DHT22;331;48.414;9.938;2023-05-13T11:23:48;10.90;99.90
698;DHT22;331;48.414;9.938;2023-05-13T11:26:16;10.90;99.90
698;DHT22;331;48.414;9.938;2023-05-13T11:28:56;10.90;99.90
698;DHT22;331;48.414;9.938;2023-05-13T11:31:24;10.90;99.90
698;DHT22;331;48.414;9.938;2023-05-13T11:34:05;10.90;99.90
698;DHT22;331;48.414;9.938;2023-05-13T11:36:34;10.90;99.90
698;DHT22;331;48.414;9.938;2023-05-13T11:39:08;10.90;99.90
698;DHT22;331;48.414;9.938;2023-05-13T11:41:40;11.00;99.90
698;DHT22;331;48.414;9.938;2023-05-13T11:44:07;11.00;99.90
698;DHT22;331;48.414;9.938;2023-05-13T11:46:36;11.00;99.90
698;DHT22;331;48.414;9.938;2023-05-13T11:49:03;11.00;99.90
698;DHT22;331;48.414;9.938;2023-05-13T11:51:32;11.00;99.90
698;DHT22;331;48.414;9.938;2023-05-13T11:53:59;11.00;99.90
698;DHT22;331;48.414;9.938;2023-05-13T11:56:27;11.00;99.90
698;DHT22;331;48.414;9.938;2023-05-13T11:58:54;11.00;99.90
698;DHT22;331;48.414;9.938;2023-05-13T12:01:21;11.00;99.90
698;DHT22;331;48.414;9.938;2023-05-13T12:03:48;11.00;99.90
698;DHT22;331;48.414;9.938;2023-05-13T12:06:17;11.00;99.90
698;DHT22;331;48.414;9.938;2023-05-13T12:08:47;11.00;99.90
698;DHT22;331;48.414;9.938;2023-05-13T12:11:14;11.00;99.90
698;DHT22;331;48.414;9.938;2023-05-13T12:13:41;11.00;99.90
698;DHT22;331;48.414;9.938;2023-05-13T12:16:08;11.00;99.90
698;DHT22;331;48.414;9.938;2023-05-13T12:18:36;11.10;99.90
698;DHT22;331;48.414;9.938;2023-05-13T12:21:13;11.10;99.90
698;DHT22;331;48.414;9.938;2023-05-13T12:23:40;11.00;99.90
698;DHT22;331;48.414;9.938;2023-05-13T12:26:08;11.10;99.90
698;DHT22;331;48.414;9.938;2023-05-13T12:28:35;11.10;99.90
698;DHT22;331;48.414;9.938;2023-05-13T12:31:02;11.10;99.90
698;DHT22;331;48.414;9.938;2023-05-13T12:33:30;11.10;99.90
698;DHT22;331;48.414;9.938;2023-05-13T12:38:39;11.10;99.90
698;DHT22;331;48.414;9.938;2023-05-13T12:41:11;11.10;99.90
698;DHT22;331;48.414;9.938;2023-05-13T12:43:39;11.10;99.90
698;DHT22;331;48.414;9.938;2023-05-13T12:46:07;11.10;99.90
698;DHT22;331;48.414;9.938;2023-05-13T12:48:34;11.10;99.90
698;DHT22;331;48.414;9.938;2023-05-13T12:51:00;11.10;99.90
698;DHT22;331;48.414;9.938;2023-05-13T12:53:27;11.10;99.90
698;DHT22;331;48.414;9.938;2023-05-13T12:55:54;11.10;99.90
698;DHT22;331;48.414;9.938;2023-05-13T12:58:23;11.10;99.90
698;DHT22;331;48.414;9.938;2023-05-13T13:00:50;11.10;99.90
698;DHT22;331;48.414;9.938;2023-05-13T13:03:16;11.20;99.90
698;DHT22;331;48.414;9.938;2023-05-13T13:05:43;11.10;99.90
698;DHT22;331;48.414;9.938;2023-05-13T13:08:11;11.10;99.90
698;DHT22;331;48.414;9.938;2023-05-13T13:10:39;11.20;99.90
698;DHT22;331;48.414;9.938;2023-05-13T13:13:06;11.20;99.90
698;DHT22;331;48.414;9.938;2023-05-13T13:15:34;11.20;99.90
698;DHT22;331;48.414;9.938;2023-05-13T13:18:01;11.20;99.90
698;DHT22;331;48.414;9.938;2023-05-13T13:20:28;11.20;99.90
698;DHT22;331;48.414;9.938;2023-05-13T13:22:55;11.20;99.90
698;DHT22;331;48.414;9.938;2023-05-13T13:25:24;11.20;99.90
698;DHT22;331;48.414;9.938;2023-05-13T13:27:53;11.20;99.90
698;DHT22;331;48.414;9.938;2023-05-13T13:30:20;11.20;99.90
698;DHT22;331;48.414;9.938;2023-05-13T13:32:48;11.30;99.90
698;DHT22;331;48.414;9.938;2023-05-13T13:35:15;11.30;99.90
698;DHT22;331;48.414;9.938;2023-05-13T13:37:42;11.30;99.90
698;DHT22;331;48.414;9.938;2023-05-13T13:40:09;11.30;99.90
698;DHT22;331;48.414;9.938;2023-05-13T13:42:36;11.20;99.90
698;DHT22;331;48.414;9.938;2023-05-13T13:45:04;11.30;99.90
698;DHT22;331;48.414;9.938;2023-05-13T13:47:31;11.30;99.90
698;DHT22;331;48.414;9.938;2023-05-13T13:49:59;11.30;99.90
698;DHT22;331;48.414;9.938;2023-05-13T13:52:26;11.30;99.90
698;DHT22;331;48.414;9.938;2023-05-13T13:54:56;11.30;99.90
698;DHT22;331;48.414;9.938;2023-05-13T13:57:23;11.30;99.90
698;DHT22;331;48.414;9.938;2023-05-13T13:59:50;11.30;99.90
698;DHT22;331;48.414;9.938;2023-05-13T14:02:17;11.40;99.90
698;DHT22;331;48.414;9.938;2023-05-13T14:04:44;11.30;99.90
698;DHT22;331;48.414;9.938;2023-05-13T14:07:13;11.40;99.90
698;DHT22;331;48.414;9.938;2023-05-13T14:09:42;11.40;99.90
698;DHT22;331;48.414;9.938;2023-05-13T14:12:09;11.40;99.90
698;DHT22;331;48.414;9.938;2023-05-13T14:14:36;11.40;99.90
698;DHT22;331;48.414;9.938;2023-05-13T14:17:06;11.40;99.90
698;DHT22;331;48.414;9.938;2023-05-13T14:19:33;11.40;99.90
698;DHT22;331;48.414;9.938;2023-05-13T14:22:00;11.40;99.90
698;DHT22;331;48.414;9.938;2023-05-13T14:24:28;11.40;99.90
698;DHT22;331;48.414;9.938;2023-05-13T14:26:56;11.40;99.90
698;DHT22;331;48.414;9.938;2023-05-13T14:29:24;11.40;99.90
698;DHT22;331;48.414;9.938;2023-05-13T14:31:50;11.50;99.90
698;DHT22;331;48.414;9.938;2023-05-13T14:34:17;11.50;99.90
698;DHT22;331;48.414;9.938;2023-05-13T14:36:45;11.50;99.90
698;DHT22;331;48.414;9.938;2023-05-13T14:39:12;11.50;99.90
698;DHT22;331;48.414;9.938;2023-05-13T14:41:40;11.50;99.90
698;DHT22;331;48.414;9.938;2023-05-13T14:44:10;11.50;99.90
698;DHT22;331;48.414;9.938;2023-05-13T14:46:37;11.50;99.90
698;DHT22;331;48.414;9.938;2023-05-13T14:49:05;11.50;99.90
698;DHT22;331;48.414;9.938;2023-05-13T14:51:32;11.50;99.90
698;DHT22;331;48.414;9.938;2023-05-13T14:53:59;11.50;99.90
698;DHT22;331;48.414;9.938;2023-05-13T14:56:26;11.50;99.90
698;DHT22;331;48.414;9.938;2023-05-13T14:58:54;11.50;99.90
698;DHT22;331;48.414;9.938;2023-05-13T15:01:21;11.50;99.90
698;DHT22;331;48.414;9.938;2023-05-13T15:03:48;11.50;99.90
698;DHT22;331;48.414;9.938;2023-05-13T15:06:18;11.50;99.90
698;DHT22;331;48.414;9.938;2023-05-13T15:08:45;11.60;99.90
698;DHT22;331;48.414;9.938;2023-05-13T15:11:12;11.60;99.90
698;DHT22;331;48.414;9.938;2023-05-13T15:13:39;11.60;99.90
698;DHT22;331;48.414;9.938;2023-05-13T15:16:07;11.60;99.90
698;DHT22;331;48.414;9.938;2023-05-13T15:18:36;11.60;99.90
698;DHT22;331;48.414;9.938;2023-05-13T15:21:02;11.60;99.90
698;DHT22;331;48.414;9.938;2023-05-13T15:23:29;11.60;99.90
698;DHT22;331;48.414;9.938;2023-05-13T15:25:56;11.60;99.90
698;DHT22;331;48.414;9.938;2023-05-13T15:28:23;11.60;99.90
698;DHT22;331;48.414;9.938;2023-05-13T15:30:50;11.60;99.90
698;DHT22;331;48.414;9.938;2023-05-13T15:33:18;11.60;99.90
698;DHT22;331;48.414;9.938;2023-05-13T15:35:45;11.60;99.90
698;DHT22;331;48.414;9.938;2023-05-13T15:38:12;11.60;99.90
698;DHT22;331;48.414;9.938;2023-05-13T15:40:39;11.60;99.90
698;DHT22;331;48.414;9.938;2023-05-13T15:43:11;11.70;99.90
698;DHT22;331;48.414;9.938;2023-05-13T15:45:38;11.70;99.90
698;DHT22;331;48.414;9.938;2023-05-13T15:48:05;11.70;99.90
698;DHT22;331;48.414;9.938;2023-05-13T15:50:34;11.70;99.90
698;DHT22;331;48.414;9.938;2023-05-13T15:53:01;11.70;99.90
698;DHT22;331;48.414;9.938;2023-05-13T15:55:29;11.70;99.90
698;DHT22;331;48.414;9.938;2023-05-13T15:58:02;11.70;99.90
698;DHT22;331;48.414;9.938;2023-05-13T16:00:29;11.70;99.90
698;DHT22;331;48.414;9.938;2023-05-13T16:02:56;11.70;99.90
698;DHT22;331;48.414;9.938;2023-05-13T16:05:23;11.70;99.90
698;DHT22;331;48.414;9.938;2023-05-13T16:07:52;11.70;99.90
698;DHT22;331;48.414;9.938;2023-05-13T16:10:20;11.70;99.90
698;DHT22;331;48.414;9.938;2023-05-13T16:12:47;11.70;99.90
698;DHT22;331;48.414;9.938;2023-05-13T16:15:14;11.70;99.90
698;DHT22;331;48.414;9.938;2023-05-13T16:17:42;11.70;99.90
698;DHT22;331;48.414;9.938;2023-05-13T16:20:10;11.70;99.90
698;DHT22;331;48.414;9.938;2023-05-13T16:22:37;11.70;99.90
698;DHT22;331;48.414;9.938;2023-05-13T16:25:07;11.70;99.90
698;DHT22;331;48.414;9.938;2023-05-13T16:27:35;11.70;99.90
698;DHT22;331;48.414;9.938;2023-05-13T16:30:03;11.70;99.90
698;DHT22;331;48.414;9.938;2023-05-13T16:32:31;11.70;99.90
698;DHT22;331;48.414;9.938;2023-05-13T16:34:59;11.70;99.90
698;DHT22;331;48.414;9.938;2023-05-13T16:37:27;11.80;99.90
698;DHT22;331;48.414;9.938;2023-05-13T16:39:55;11.80;99.90
698;DHT22;331;48.414;9.938;2023-05-13T16:42:24;11.90;99.90